createdAt,value
2022-12-27T00:01:15.252Z,27.50
2022-12-27T00:03:44.903Z,27.86
2022-12-27T00:06:20.518Z,27.71
2022-12-27T00:08:48.701Z,27.39
2022-12-27T00:11:17.943Z,28.02
2022-12-27T00:13:46.374Z,27.57
2022-12-27T00:16:16.245Z,27.97
2022-12-27T00:18:46.827Z,27.86
2022-12-27T00:21:14.502Z,27.48
2022-12-27T00:23:43.575Z,27.45
2022-12-27T00:26:12.896Z,27.85
2022-12-27T00:28:41.401Z,28.01
2022-12-27T00:31:11.400Z,27.80
2022-12-27T00:33:40.091Z,28.04
2022-12-27T00:36:09.612Z,27.42
2022-12-27T00:38:37.492Z,27.72
2022-12-27T00:41:06.079Z,27.41
2022-12-27T00:43:34.994Z,27.96
2022-12-27T00:46:02.979Z,27.69
2022-12-27T00:48:30.386Z,27.70
2022-12-27T00:50:59.235Z,27.64
2022-12-27T00:53:27.764Z,27.81
2022-12-27T00:55:55.352Z,28.11
2022-12-27T00:58:22.925Z,27.78
2022-12-27T01:00:50.832Z,27.93
2022-12-27T01:03:18.980Z,27.59
2022-12-27T01:05:46.310Z,27.46
2022-12-27T01:08:13.563Z,27.72
2022-12-27T01:10:41.429Z,27.64
2022-12-27T01:13:08.888Z,27.59
2022-12-27T01:15:36.129Z,27.12
2022-12-27T01:18:03.410Z,27.69
2022-12-27T01:20:30.724Z,27.66
2022-12-27T01:22:58.437Z,27.55
2022-12-27T01:25:25.695Z,27.68
2022-12-27T01:27:53.089Z,27.81
2022-12-27T01:30:20.288Z,27.98
2022-12-27T01:32:47.506Z,28.14
2022-12-27T01:35:15.171Z,28.07
2022-12-27T01:37:42.501Z,27.77
2022-12-27T01:40:10.240Z,27.55
2022-12-27T01:42:52.673Z,27.44
2022-12-27T01:45:19.956Z,27.93
2022-12-27T01:48:05.758Z,27.83
2022-12-27T01:50:38.554Z,27.51
2022-12-27T01:53:13.040Z,27.42
2022-12-27T01:55:51.946Z,27.50
2022-12-27T01:58:24.078Z,27.35
2022-12-27T02:00:52.020Z,27.25
2022-12-27T02:03:22.291Z,27.72
2022-12-27T02:05:50.905Z,27.94
2022-12-27T02:08:27.006Z,27.56
2022-12-27T02:10:55.384Z,27.27
2022-12-27T02:13:23.373Z,27.05
2022-12-27T02:15:50.930Z,27.67
2022-12-27T02:18:18.259Z,27.37
2022-12-27T02:20:48.381Z,27.36
2022-12-27T02:23:48.762Z,27.07
2022-12-27T02:26:24.816Z,27.42
2022-12-27T02:28:52.010Z,27.29
2022-12-27T02:31:26.252Z,27.36
2022-12-27T02:33:54.563Z,27.35
2022-12-27T02:36:29.882Z,27.21
2022-12-27T02:38:59.240Z,27.00
2022-12-27T02:41:45.601Z,27.24
2022-12-27T02:44:31.874Z,27.41
2022-12-27T02:47:17.559Z,27.39
2022-12-27T02:50:04.058Z,27.15
2022-12-27T02:53:05.342Z,27.16
2022-12-27T02:55:32.775Z,27.54
2022-12-27T02:58:06.171Z,27.42
2022-12-27T03:00:59.746Z,27.15
2022-12-27T03:03:45.758Z,27.30
2022-12-27T03:06:42.777Z,27.41
2022-12-27T03:09:38.847Z,26.69
2022-12-27T03:12:28.250Z,26.95
2022-12-27T03:15:18.130Z,26.96
2022-12-27T03:17:49.593Z,27.20
2022-12-27T03:20:38.075Z,26.95
2022-12-27T03:23:24.209Z,27.24
2022-12-27T03:25:52.855Z,27.58
2022-12-27T03:28:40.433Z,27.46
2022-12-27T03:31:31.220Z,27.81
2022-12-27T03:34:22.449Z,27.40
2022-12-27T03:37:09.430Z,27.65
2022-12-27T03:39:40.459Z,27.60
2022-12-27T03:42:30.001Z,27.66
2022-12-27T03:44:57.363Z,27.35
2022-12-27T03:47:24.561Z,27.04
2022-12-27T03:50:03.259Z,27.16
2022-12-27T03:52:38.210Z,27.32
2022-12-27T03:55:06.161Z,27.56
2022-12-27T03:57:33.450Z,27.45
2022-12-27T04:00:00.707Z,27.65
2022-12-27T04:02:28.093Z,27.55
2022-12-27T04:04:55.526Z,27.34
2022-12-27T04:07:22.685Z,27.52
2022-12-27T04:10:08.624Z,27.43
2022-12-27T04:12:54.616Z,27.38
2022-12-27T04:15:40.306Z,27.97
2022-12-27T04:18:26.385Z,27.80
2022-12-27T04:21:12.137Z,27.26
2022-12-27T04:23:58.519Z,27.18
2022-12-27T04:26:44.166Z,27.36
2022-12-27T04:29:30.048Z,27.43
2022-12-27T04:32:15.879Z,27.52
2022-12-27T04:34:46.088Z,27.38
2022-12-27T04:37:17.712Z,27.08
2022-12-27T04:40:04.199Z,26.93
2022-12-27T04:42:49.884Z,27.32
2022-12-27T04:45:35.543Z,27.37
2022-12-27T04:48:21.278Z,27.58
2022-12-27T04:51:07.114Z,27.45
2022-12-27T04:53:52.768Z,27.02
2022-12-27T04:56:20.194Z,27.48
2022-12-27T04:59:06.133Z,27.59
2022-12-27T05:01:52.154Z,27.66
2022-12-27T05:04:19.589Z,27.51
2022-12-27T05:06:47.045Z,27.38
2022-12-27T05:09:33.056Z,27.36
2022-12-27T05:12:19.129Z,27.26
2022-12-27T05:14:47.673Z,27.36
2022-12-27T05:17:14.869Z,27.66
2022-12-27T05:19:42.157Z,27.63
2022-12-27T05:22:28.129Z,27.53
2022-12-27T05:25:14.034Z,27.70
2022-12-27T05:27:41.334Z,27.41
2022-12-27T05:30:09.043Z,27.49
2022-12-27T05:32:36.363Z,27.22
2022-12-27T05:35:03.880Z,27.45
2022-12-27T05:37:31.245Z,27.25
2022-12-27T05:39:58.508Z,27.21
2022-12-27T05:42:25.858Z,27.30
2022-12-27T05:44:53.129Z,27.52
2022-12-27T05:47:20.375Z,27.46
2022-12-27T05:49:47.682Z,27.43
2022-12-27T05:52:15.052Z,27.73
2022-12-27T05:54:42.249Z,27.82
2022-12-27T05:57:09.569Z,27.75
2022-12-27T05:59:36.757Z,27.18
2022-12-27T06:02:04.244Z,27.77
2022-12-27T06:04:31.890Z,27.84
2022-12-27T06:06:59.355Z,28.10
2022-12-27T06:09:29.039Z,27.87
2022-12-27T06:11:56.455Z,27.91
2022-12-27T06:14:23.671Z,27.81
2022-12-27T06:16:51.069Z,27.76
2022-12-27T06:19:18.573Z,28.09
2022-12-27T06:21:45.933Z,27.43
2022-12-27T06:24:13.334Z,27.53
2022-12-27T06:26:42.335Z,27.69
2022-12-27T06:29:11.389Z,27.76
2022-12-27T06:31:39.116Z,27.57
2022-12-27T06:34:06.540Z,27.54
2022-12-27T06:36:33.783Z,28.02
2022-12-27T06:39:01.101Z,28.49
2022-12-27T06:41:28.499Z,27.81
2022-12-27T06:43:57.445Z,27.84
2022-12-27T06:46:24.932Z,28.02
2022-12-27T06:48:52.426Z,28.11
2022-12-27T06:51:20.722Z,27.77
2022-12-27T06:53:48.419Z,27.75
2022-12-27T06:56:17.571Z,27.38
2022-12-27T06:58:45.394Z,27.60
2022-12-27T07:01:12.794Z,27.62
2022-12-27T07:03:40.365Z,27.38
2022-12-27T07:06:08.404Z,27.99
2022-12-27T07:08:36.146Z,27.96
2022-12-27T07:11:04.621Z,28.20
2022-12-27T07:13:35.931Z,28.23
2022-12-27T07:16:10.780Z,28.32
2022-12-27T07:18:38.197Z,28.02
2022-12-27T07:21:06.434Z,28.20
2022-12-27T07:23:34.067Z,28.18
2022-12-27T07:26:08.466Z,28.11
2022-12-27T07:28:36.341Z,27.81
2022-12-27T07:31:11.699Z,28.04
2022-12-27T07:33:39.112Z,27.97
2022-12-27T07:36:08.817Z,28.14
2022-12-27T07:38:36.075Z,28.76
2022-12-27T07:41:04.252Z,28.64
2022-12-27T07:43:33.322Z,28.33
2022-12-27T07:46:09.950Z,28.41
2022-12-27T07:48:37.551Z,28.15
2022-12-27T07:51:05.129Z,28.25
2022-12-27T07:53:32.545Z,27.99
2022-12-27T07:55:59.896Z,28.12
2022-12-27T07:58:27.155Z,28.33
2022-12-27T08:00:54.516Z,28.33
2022-12-27T08:03:21.911Z,28.19
2022-12-27T08:05:50.185Z,28.14
2022-12-27T08:08:20.247Z,28.20
2022-12-27T08:10:47.524Z,28.52
2022-12-27T08:13:14.938Z,28.44
2022-12-27T08:15:42.975Z,28.39
2022-12-27T08:18:10.326Z,28.34
2022-12-27T08:20:37.627Z,28.46
2022-12-27T08:23:04.884Z,28.41
2022-12-27T08:25:32.264Z,28.38
2022-12-27T08:28:06.618Z,28.00
2022-12-27T08:30:34.592Z,28.43
2022-12-27T08:33:02.720Z,28.63
2022-12-27T08:35:52.159Z,28.19
2022-12-27T08:38:17.829Z,28.36
2022-12-27T08:40:45.645Z,28.42
2022-12-27T08:43:13.239Z,28.54
2022-12-27T08:45:40.998Z,28.58
2022-12-27T08:48:08.936Z,28.33
2022-12-27T08:50:36.212Z,28.57
2022-12-27T08:53:04.495Z,28.59
2022-12-27T08:55:32.171Z,28.60
2022-12-27T08:58:00.337Z,28.11
2022-12-27T09:00:27.939Z,28.41
2022-12-27T09:02:55.420Z,28.01
2022-12-27T09:05:23.109Z,28.35
2022-12-27T09:07:50.608Z,28.56
2022-12-27T09:10:18.382Z,28.54
2022-12-27T09:12:48.288Z,28.34
2022-12-27T09:15:16.021Z,28.25
2022-12-27T09:17:43.303Z,28.49
2022-12-27T09:20:12.405Z,28.37
2022-12-27T09:22:39.730Z,27.84
2022-12-27T09:25:07.797Z,28.29
2022-12-27T09:27:36.049Z,28.51
2022-12-27T09:30:04.677Z,28.59
2022-12-27T09:32:31.986Z,28.28
2022-12-27T09:34:59.202Z,28.34
2022-12-27T09:37:27.719Z,28.11
2022-12-27T09:39:54.977Z,28.48
2022-12-27T09:45:26.212Z,28.48
2022-12-27T09:47:59.731Z,28.76
2022-12-27T09:50:48.826Z,28.43
2022-12-27T09:53:17.567Z,28.29
2022-12-27T09:55:55.890Z,28.73
2022-12-27T09:58:23.164Z,28.54
2022-12-27T10:00:50.888Z,28.21
2022-12-27T10:03:21.045Z,27.94
2022-12-27T10:05:56.095Z,28.39
2022-12-27T10:08:43.734Z,28.50
2022-12-27T10:11:36.289Z,28.59
2022-12-27T10:14:27.398Z,28.58
2022-12-27T10:17:00.070Z,28.43
2022-12-27T10:19:46.122Z,28.76
2022-12-27T10:22:22.784Z,28.62
2022-12-27T10:24:57.291Z,28.74
2022-12-27T10:27:26.863Z,28.80
2022-12-27T10:29:55.556Z,28.69
2022-12-27T10:32:23.282Z,28.61
2022-12-27T10:35:02.117Z,28.19
2022-12-27T10:37:30.375Z,28.46
2022-12-27T10:40:01.204Z,28.65
2022-12-27T10:42:38.508Z,28.41
2022-12-27T10:45:24.527Z,28.57
2022-12-27T10:47:52.606Z,28.69
2022-12-27T10:50:22.594Z,28.59
2022-12-27T10:52:55.705Z,28.42
2022-12-27T10:55:51.203Z,28.50
2022-12-27T10:58:20.472Z,28.66
2022-12-27T11:00:54.772Z,28.76
2022-12-27T11:03:22.255Z,28.56
2022-12-27T11:06:00.281Z,28.81
2022-12-27T11:08:28.160Z,28.62
2022-12-27T11:11:15.018Z,28.27
2022-12-27T11:13:42.651Z,28.68
2022-12-27T11:16:17.826Z,28.43
2022-12-27T11:18:46.900Z,28.64
2022-12-27T11:21:23.856Z,28.54
2022-12-27T11:24:02.517Z,28.49
2022-12-27T11:26:31.576Z,28.44
2022-12-27T11:29:01.223Z,28.34
2022-12-27T11:31:31.416Z,28.73
2022-12-27T11:34:00.466Z,28.45
2022-12-27T11:36:40.825Z,28.44
2022-12-27T11:39:08.524Z,28.49
2022-12-27T11:41:49.577Z,28.70
2022-12-27T11:44:27.050Z,28.62
2022-12-27T11:47:12.319Z,28.60
2022-12-27T11:50:02.669Z,28.31
2022-12-27T11:52:33.851Z,28.38
2022-12-27T11:55:20.045Z,28.78
2022-12-27T11:58:05.966Z,28.46
2022-12-27T12:00:38.178Z,28.56
2022-12-27T12:03:14.503Z,28.77
2022-12-27T12:05:48.625Z,28.68
2022-12-27T12:08:33.275Z,28.72
2022-12-27T12:11:26.439Z,28.44
2022-12-27T12:14:02.826Z,28.66
2022-12-27T12:17:06.114Z,28.58
2022-12-27T12:19:52.180Z,28.66
2022-12-27T12:22:25.342Z,28.60
2022-12-27T12:24:52.628Z,28.66
2022-12-27T12:27:38.810Z,28.61
2022-12-27T12:30:22.379Z,28.44
2022-12-27T12:32:59.571Z,28.44
2022-12-27T12:35:33.040Z,28.24
2022-12-27T12:38:09.378Z,28.60
2022-12-27T12:40:39.733Z,28.27
2022-12-27T12:43:25.716Z,28.34
2022-12-27T12:46:02.794Z,28.45
2022-12-27T12:48:30.493Z,28.44
2022-12-27T12:50:57.724Z,28.62
2022-12-27T12:53:34.082Z,28.51
2022-12-27T12:56:07.490Z,28.44
2022-12-27T12:58:46.291Z,28.48
2022-12-27T13:01:19.618Z,28.94
2022-12-27T13:04:01.746Z,28.65
2022-12-27T13:06:32.163Z,29.08
2022-12-27T13:09:02.777Z,28.57
2022-12-27T13:11:38.997Z,28.65
2022-12-27T13:14:17.884Z,28.47
2022-12-27T13:16:57.372Z,28.62
2022-12-27T13:19:27.742Z,28.57
2022-12-27T13:22:13.738Z,28.59
2022-12-27T13:24:44.160Z,28.55
2022-12-27T13:27:30.102Z,28.61
2022-12-27T13:30:13.281Z,28.62
2022-12-27T13:32:54.763Z,28.80
2022-12-27T13:35:22.489Z,28.75
2022-12-27T13:37:52.583Z,28.38
2022-12-27T13:40:23.352Z,28.74
2022-12-27T13:42:50.565Z,28.85
2022-12-27T13:45:25.904Z,28.61
2022-12-27T13:48:02.313Z,28.43
2022-12-27T13:50:48.168Z,28.74
2022-12-27T13:53:18.640Z,28.54
2022-12-27T13:56:20.363Z,28.53
2022-12-27T13:59:03.688Z,28.69
2022-12-27T14:01:31.100Z,28.53
2022-12-27T14:04:12.888Z,28.53
2022-12-27T14:07:06.196Z,28.58
2022-12-27T14:09:33.450Z,28.80
2022-12-27T14:12:09.611Z,28.43
2022-12-27T14:14:38.821Z,28.66
2022-12-27T14:17:11.027Z,28.52
2022-12-27T14:19:44.570Z,28.72
2022-12-27T14:22:26.351Z,28.61
2022-12-27T14:25:12.482Z,28.36
2022-12-27T14:28:11.930Z,28.57
2022-12-27T14:30:42.572Z,28.65
2022-12-27T14:33:15.714Z,28.69
2022-12-27T14:36:01.518Z,28.51
2022-12-27T14:38:31.564Z,28.63
2022-12-27T14:41:17.514Z,28.43
2022-12-27T14:44:03.407Z,28.29
2022-12-27T14:46:30.784Z,28.33
2022-12-27T14:49:16.704Z,28.55
2022-12-27T14:52:02.671Z,28.50
2022-12-27T14:54:42.327Z,28.63
2022-12-27T14:57:15.899Z,28.73
2022-12-27T14:59:50.086Z,28.72
2022-12-27T15:02:20.775Z,28.53
2022-12-27T15:05:14.448Z,28.62
2022-12-27T15:07:56.825Z,28.43
2022-12-27T15:10:42.693Z,28.32
2022-12-27T15:13:16.113Z,28.17
2022-12-27T15:15:49.355Z,28.02
2022-12-27T15:18:22.590Z,28.28
2022-12-27T15:21:00.292Z,27.83
2022-12-27T15:23:33.526Z,28.30
2022-12-27T15:26:15.108Z,28.34
2022-12-27T15:28:55.293Z,28.76
2022-12-27T15:31:42.718Z,29.00
2022-12-27T15:34:10.183Z,28.84
2022-12-27T15:36:39.399Z,28.28
2022-12-27T15:39:26.668Z,28.70
2022-12-27T15:41:53.925Z,28.36
2022-12-27T15:44:21.124Z,28.18
2022-12-27T15:46:54.582Z,28.70
2022-12-27T15:49:43.159Z,28.65
2022-12-27T15:52:33.710Z,28.61
2022-12-27T15:55:19.190Z,28.21
2022-12-27T15:58:13.258Z,28.94
2022-12-27T16:00:41.291Z,28.69
2022-12-27T16:03:27.308Z,28.23
2022-12-27T16:05:54.711Z,28.59
2022-12-27T16:08:27.722Z,28.38
2022-12-27T16:10:55.849Z,28.66
2022-12-27T16:13:34.455Z,28.66
2022-12-27T16:16:09.366Z,28.44
2022-12-27T16:19:03.359Z,28.81
2022-12-27T16:21:41.874Z,28.66
2022-12-27T16:24:15.822Z,28.78
2022-12-27T16:27:03.067Z,28.60
2022-12-27T16:29:35.630Z,28.61
2022-12-27T16:32:15.850Z,28.58
2022-12-27T16:34:45.181Z,28.51
2022-12-27T16:37:29.753Z,28.64
2022-12-27T16:39:57.269Z,28.36
2022-12-27T16:42:33.974Z,28.57
2022-12-27T16:45:03.141Z,28.44
2022-12-27T16:47:34.007Z,28.61
2022-12-27T16:50:07.098Z,28.57
2022-12-27T16:52:34.383Z,28.67
2022-12-27T16:55:20.492Z,28.69
2022-12-27T16:57:48.615Z,28.62
2022-12-27T17:00:42.385Z,28.52
2022-12-27T17:03:21.129Z,28.03
2022-12-27T17:06:21.765Z,28.19
2022-12-27T17:08:36.888Z,27.82
2022-12-27T17:11:16.380Z,28.03
2022-12-27T17:13:49.707Z,28.31
2022-12-27T17:16:37.542Z,28.36
2022-12-27T17:19:07.293Z,28.44
2022-12-27T17:21:38.417Z,28.21
2022-12-27T17:24:05.772Z,28.56
2022-12-27T17:26:51.192Z,28.16
2022-12-27T17:29:18.469Z,28.16
2022-12-27T17:31:50.044Z,27.99
2022-12-27T17:34:22.554Z,28.28
2022-12-27T17:36:49.810Z,28.23
2022-12-27T17:39:16.984Z,28.24
2022-12-27T17:42:11.870Z,28.13
2022-12-27T17:44:48.342Z,28.31
2022-12-27T17:47:16.055Z,28.64
2022-12-27T17:49:43.594Z,28.32
2022-12-27T17:52:34.576Z,28.16
2022-12-27T17:55:37.808Z,27.86
2022-12-27T17:58:06.978Z,27.85
2022-12-27T18:00:36.293Z,27.75
2022-12-27T18:03:07.744Z,27.74
2022-12-27T18:05:39.807Z,28.19
2022-12-27T18:08:25.528Z,27.55
2022-12-27T18:10:52.881Z,27.91
2022-12-27T18:13:20.883Z,28.41
2022-12-27T18:15:49.458Z,28.28
2022-12-27T18:18:19.056Z,28.48
2022-12-27T18:20:46.832Z,28.57
2022-12-27T18:23:16.146Z,28.65
2022-12-27T18:25:43.423Z,28.51
2022-12-27T18:28:13.349Z,28.76
2022-12-27T18:30:43.513Z,28.41
2022-12-27T18:33:15.327Z,28.10
2022-12-27T18:35:44.133Z,28.36
2022-12-27T18:38:16.352Z,28.66
2022-12-27T18:40:43.921Z,28.73
2022-12-27T18:43:17.636Z,28.83
2022-12-27T18:45:45.319Z,28.61
2022-12-27T18:48:12.681Z,28.55
2022-12-27T18:50:47.517Z,28.36
2022-12-27T18:53:23.689Z,28.56
2022-12-27T18:55:58.837Z,28.00
2022-12-27T18:58:26.727Z,28.29
2022-12-27T19:00:53.966Z,28.59
2022-12-27T19:03:21.465Z,28.78
2022-12-27T19:06:05.586Z,28.74
2022-12-27T19:08:37.598Z,28.24
2022-12-27T19:11:05.699Z,28.72
2022-12-27T19:13:53.667Z,28.14
2022-12-27T19:16:23.373Z,28.60
2022-12-27T19:18:52.387Z,28.18
2022-12-27T19:21:20.024Z,27.91
2022-12-27T19:23:49.290Z,28.14
2022-12-27T19:26:16.607Z,28.48
2022-12-27T19:28:45.150Z,28.25
2022-12-27T19:31:18.453Z,28.18
2022-12-27T19:33:53.723Z,28.33
2022-12-27T19:36:41.343Z,28.41
2022-12-27T19:39:16.779Z,28.34
2022-12-27T19:41:44.144Z,28.11
2022-12-27T19:44:11.748Z,27.91
2022-12-27T19:46:39.207Z,27.71
2022-12-27T19:51:56.098Z,27.65
2022-12-27T19:54:24.980Z,28.04
2022-12-27T19:56:53.056Z,28.16
2022-12-27T19:59:21.837Z,27.89
2022-12-27T20:01:49.417Z,27.99
2022-12-27T20:04:17.196Z,28.13
2022-12-27T20:06:45.763Z,27.69
2022-12-27T20:09:13.947Z,28.01
2022-12-27T20:11:41.561Z,27.83
2022-12-27T20:14:08.851Z,28.07
2022-12-27T20:16:36.379Z,27.52
2022-12-27T20:19:03.752Z,27.62
2022-12-27T20:21:31.249Z,27.53
2022-12-27T20:23:58.500Z,27.91
2022-12-27T20:26:25.919Z,28.27
2022-12-27T20:28:53.463Z,27.58
2022-12-27T20:31:21.766Z,28.21
2022-12-27T20:33:52.867Z,28.01
2022-12-27T20:36:20.662Z,27.74
2022-12-27T20:38:47.929Z,28.10
2022-12-27T20:41:16.745Z,27.97
2022-12-27T20:43:44.037Z,28.16
2022-12-27T20:46:12.639Z,28.20
2022-12-27T20:48:41.237Z,28.11
2022-12-27T20:51:13.091Z,28.29
2022-12-27T20:53:40.464Z,28.16
2022-12-27T20:56:09.064Z,27.83
2022-12-27T20:58:36.909Z,27.85
2022-12-27T21:01:08.076Z,27.95
2022-12-27T21:03:36.314Z,27.51
2022-12-27T21:06:08.107Z,27.65
2022-12-27T21:08:40.435Z,28.21
2022-12-27T21:11:16.477Z,27.62
2022-12-27T21:13:44.266Z,27.54
2022-12-27T21:16:16.311Z,27.85
2022-12-27T21:18:43.741Z,27.65
2022-12-27T21:21:17.995Z,27.95
2022-12-27T21:23:47.255Z,27.72
2022-12-27T21:26:19.110Z,27.94
2022-12-27T21:28:46.889Z,27.64
2022-12-27T21:31:15.017Z,28.07
2022-12-27T21:33:42.624Z,27.55
2022-12-27T21:36:14.579Z,27.86
2022-12-27T21:38:42.361Z,27.99
2022-12-27T21:41:14.300Z,27.50
2022-12-27T21:43:42.508Z,27.87
2022-12-27T21:46:13.100Z,27.98
2022-12-27T21:48:40.472Z,28.00
2022-12-27T21:51:09.086Z,28.01
2022-12-27T21:53:36.553Z,27.90
2022-12-27T21:56:04.806Z,28.10
2022-12-27T21:58:32.605Z,28.30
2022-12-27T22:01:08.331Z,28.03
2022-12-27T22:03:37.244Z,28.11
2022-12-27T22:06:15.151Z,27.77
2022-12-27T22:08:43.131Z,28.35
2022-12-27T22:11:13.618Z,27.99
2022-12-27T22:13:41.431Z,28.34
2022-12-27T22:16:12.173Z,28.10
2022-12-27T22:18:43.119Z,27.80
2022-12-27T22:21:12.000Z,27.94
2022-12-27T22:23:41.310Z,27.76
2022-12-27T22:26:12.787Z,27.83
2022-12-27T22:28:40.566Z,27.82
2022-12-27T22:31:08.916Z,27.89
2022-12-27T22:33:36.921Z,27.94
2022-12-27T22:36:05.598Z,27.99
2022-12-27T22:38:33.227Z,28.19
2022-12-27T22:41:11.589Z,28.22
2022-12-27T22:43:39.540Z,28.31
2022-12-27T22:46:07.884Z,28.21
2022-12-27T22:48:35.303Z,28.35
2022-12-27T22:51:10.423Z,28.41
2022-12-27T22:53:37.827Z,28.49
2022-12-27T22:56:05.063Z,27.74
2022-12-27T22:58:32.424Z,28.23
2022-12-27T23:01:00.833Z,28.59
2022-12-27T23:03:28.172Z,28.29
2022-12-27T23:05:56.100Z,28.25
2022-12-27T23:08:23.380Z,28.21
2022-12-27T23:10:50.578Z,28.11
2022-12-27T23:13:22.225Z,28.32
2022-12-27T23:15:56.540Z,28.00
2022-12-27T23:18:24.126Z,28.27
2022-12-27T23:21:20.490Z,28.04
2022-12-27T23:23:38.874Z,27.86
2022-12-27T23:26:07.901Z,27.78
2022-12-27T23:28:36.900Z,28.06
2022-12-27T23:31:05.395Z,28.08
2022-12-27T23:33:32.911Z,28.10
2022-12-27T23:36:00.606Z,27.96
2022-12-27T23:38:28.142Z,27.83
2022-12-27T23:40:56.341Z,27.90
2022-12-27T23:43:51.119Z,27.91
2022-12-27T23:46:15.599Z,27.96
2022-12-27T23:48:43.175Z,28.03
2022-12-27T23:51:11.353Z,27.99
2022-12-27T23:53:38.650Z,27.80
2022-12-27T23:56:08.066Z,27.95
2022-12-27T23:58:38.925Z,28.01
